Time;durP1;ratioP1;P1;durP2;ratioP2;P2;SDS_P1;SDS_P2;PMS_P1;PMS_P2;Temp;Humidity;BMP_temperature;BMP_pressure;BME280_temperature;BME280_humidity;BME280_pressure;Samples;Min_cycle;Max_cycle;Signal;HPM_P1;HPM_P2
2022/03/13 00:01:26;;;;;;;96.70;21.90;;;;;;;-3.32;53.87;100451.51;103599;1300;24212;-30
2022/03/13 00:03:52;;;;;;;68.10;20.70;;;;;;;-3.34;54.23;100455.13;103540;1300;22497;-29
2022/03/13 00:06:27;;;;;;;59.80;20.10;;;;;;;-3.37;54.09;100456.52;103584;1300;24244;-29
2022/03/13 00:08:58;;;;;;;57.40;17.90;;;;;;;-3.39;54.74;100458.36;103566;1300;22644;-26
2022/03/13 00:11:24;;;;;;;62.10;18.40;;;;;;;-3.38;54.69;100454.27;103530;1300;24215;-25
2022/03/13 00:13:51;;;;;;;46.50;18.00;;;;;;;-3.35;54.97;100456.71;103605;1300;24435;-28
2022/03/13 00:16:17;;;;;;;37.00;14.90;;;;;;;-3.31;55.12;100453.86;103553;1302;24225;-25
2022/03/13 00:21:14;;;;;;;50.80;15.50;;;;;;;-3.27;55.27;100454.36;103623;1300;24348;-28
2022/03/13 00:23:41;;;;;;;56.40;15.00;;;;;;;-3.28;55.71;100450.94;103618;1300;24251;-29
2022/03/13 00:26:07;;;;;;;57.50;18.50;;;;;;;-3.28;55.65;100444.27;103554;1300;24211;-25
2022/03/13 00:28:33;;;;;;;61.70;17.30;;;;;;;-3.27;55.92;100442.85;103544;1302;24350;-25
2022/03/13 00:31:01;;;;;;;54.50;17.90;;;;;;;-3.29;55.83;100440.98;103566;1300;22981;-26
2022/03/13 00:33:28;;;;;;;59.50;18.60;;;;;;;-3.31;55.92;100443.75;103455;1300;24234;-26
2022/03/13 00:35:53;;;;;;;72.50;20.80;;;;;;;-3.33;55.51;100441.58;103522;1300;22629;-28
2022/03/13 00:38:19;;;;;;;55.60;17.50;;;;;;;-3.35;55.90;100441.33;103626;1300;22500;-26
2022/03/13 00:40:51;;;;;;;69.40;18.50;;;;;;;-3.37;55.55;100441.39;103547;1300;24244;-28
2022/03/13 00:43:19;;;;;;;112.10;30.90;;;;;;;-3.40;55.63;100438.23;103524;1300;24175;-29
2022/03/13 00:45:45;;;;;;;127.50;29.80;;;;;;;-3.40;55.32;100438.44;103603;1303;24287;-29
2022/03/13 00:48:12;;;;;;;112.40;26.90;;;;;;;-3.41;55.08;100434.13;103591;1300;24297;-26
2022/03/13 00:50:38;;;;;;;165.10;34.30;;;;;;;-3.40;54.79;100431.24;103535;1301;24364;-28
2022/03/13 00:53:05;;;;;;;245.90;46.70;;;;;;;-3.37;54.67;100434.08;103524;1300;24989;-26
2022/03/13 00:55:31;;;;;;;142.00;34.90;;;;;;;-3.38;54.61;100427.98;103591;1300;24352;-25
2022/03/13 00:57:58;;;;;;;96.20;23.90;;;;;;;-3.38;54.71;100426.08;103511;1300;24250;-26
2022/03/13 01:00:24;;;;;;;140.00;36.20;;;;;;;-3.38;54.76;100426.96;103572;1300;22731;-26
2022/03/13 01:02:49;;;;;;;176.50;39.30;;;;;;;-3.35;54.73;100423.11;103501;1300;24319;-26
2022/03/13 01:05:21;;;;;;;205.80;38.20;;;;;;;-3.30;54.14;100421.95;103555;1300;24177;-26
2022/03/13 01:07:47;;;;;;;134.30;28.50;;;;;;;-3.23;54.03;100421.05;103634;1300;22514;-26
2022/03/13 01:10:12;;;;;;;64.60;20.30;;;;;;;-3.16;53.24;100418.44;103582;1300;24282;-29
2022/03/13 01:12:38;;;;;;;90.10;24.50;;;;;;;-3.10;52.83;100422.25;103521;1300;24229;-26
2022/03/13 01:15:05;;;;;;;103.20;25.00;;;;;;;-3.02;52.69;100421.14;103542;1300;24218;-27
2022/03/13 01:17:31;;;;;;;54.40;17.10;;;;;;;-2.96;52.25;100417.66;103608;1300;22506;-26
2022/03/13 01:19:56;;;;;;;46.50;13.70;;;;;;;-2.89;51.37;100417.94;103614;1301;24248;-25
2022/03/13 01:22:22;;;;;;;71.40;17.60;;;;;;;-2.81;51.23;100414.69;103614;1301;24214;-26
2022/03/13 01:24:51;;;;;;;97.10;21.60;;;;;;;-2.76;51.09;100416.19;103607;1300;24349;-30
2022/03/13 01:27:17;;;;;;;127.70;25.00;;;;;;;-2.75;50.98;100415.60;103598;1300;24298;-26
2022/03/13 01:29:44;;;;;;;73.10;20.50;;;;;;;-2.75;51.42;100415.39;103449;1300;24188;-28
2022/03/13 01:32:12;;;;;;;76.60;20.60;;;;;;;-2.74;50.82;100412.08;103518;1302;24282;-25
2022/03/13 01:34:42;;;;;;;152.30;35.50;;;;;;;-2.75;51.01;100410.69;103544;1300;24191;-26
2022/03/13 01:37:13;;;;;;;209.40;44.40;;;;;;;-2.77;51.14;100411.30;103464;1302;24325;-28
2022/03/13 01:39:39;;;;;;;129.90;31.90;;;;;;;-2.81;51.68;100406.13;103549;1300;26361;-28
2022/03/13 01:42:05;;;;;;;100.30;25.00;;;;;;;-2.86;52.03;100406.92;103595;1302;24440;-26
2022/03/13 01:44:31;;;;;;;101.00;27.10;;;;;;;-2.92;52.59;100404.09;103635;1300;24304;-26
2022/03/13 01:46:57;;;;;;;129.20;37.30;;;;;;;-2.99;52.73;100398.73;103573;1303;24286;-25
2022/03/13 01:49:23;;;;;;;157.70;38.00;;;;;;;-3.05;52.57;100395.21;103558;1302;24444;-25
2022/03/13 01:51:49;;;;;;;95.20;25.40;;;;;;;-3.10;52.92;100396.02;103611;1302;24348;-26
2022/03/13 01:54:15;;;;;;;65.50;20.40;;;;;;;-3.11;52.66;100390.81;103561;1302;24208;-26
2022/03/13 01:56:41;;;;;;;76.10;27.10;;;;;;;-3.10;52.97;100394.77;103570;1302;22723;-26
2022/03/13 01:59:07;;;;;;;59.50;17.80;;;;;;;-3.10;52.67;100393.90;103572;1300;24322;-30
2022/03/13 02:01:33;;;;;;;62.80;20.30;;;;;;;-3.10;52.58;100393.90;103594;1300;24234;-28
2022/03/13 02:03:59;;;;;;;50.90;16.30;;;;;;;-3.10;52.38;100388.28;103542;1300;24397;-25
2022/03/13 02:06:26;;;;;;;50.20;15.10;;;;;;;-3.09;52.25;100392.45;103512;1301;24290;-28
2022/03/13 02:08:53;;;;;;;34.50;13.80;;;;;;;-3.09;51.83;100394.73;103592;1300;24348;-28
2022/03/13 02:11:21;;;;;;;38.70;13.80;;;;;;;-3.10;51.71;100391.95;103675;1302;22499;-25
2022/03/13 02:13:48;;;;;;;52.30;17.90;;;;;;;-3.09;51.81;100389.79;103595;1300;24354;-27
2022/03/13 02:16:14;;;;;;;45.30;17.10;;;;;;;-3.09;51.86;100391.56;103480;1303;24332;-28
2022/03/13 02:18:41;;;;;;;49.60;17.50;;;;;;;-3.09;51.95;100389.80;103548;1302;25345;-25
2022/03/13 02:21:08;;;;;;;43.50;14.60;;;;;;;-3.09;52.04;100386.80;103589;1300;24366;-28
2022/03/13 02:23:33;;;;;;;43.10;14.70;;;;;;;-3.07;51.60;100386.89;103620;1301;24358;-28
2022/03/13 02:26:00;;;;;;;34.80;11.10;;;;;;;-3.07;51.72;100387.06;103617;1300;24230;-30
2022/03/13 02:28:29;;;;;;;33.20;10.60;;;;;;;-3.05;51.11;100384.49;103567;1302;24014;-30
2022/03/13 02:30:59;;;;;;;38.30;11.10;;;;;;;-3.02;51.29;100381.90;103562;1300;24368;-29
2022/03/13 02:33:26;;;;;;;29.40;11.70;;;;;;;-3.01;50.37;100381.64;103617;1300;24218;-26
2022/03/13 02:35:55;;;;;;;37.10;11.20;;;;;;;-3.01;50.40;100378.14;103528;1300;24351;-27
2022/03/13 02:38:21;;;;;;;42.50;12.20;;;;;;;-3.00;50.46;100374.58;103605;1302;24215;-28
2022/03/13 02:40:47;;;;;;;30.60;11.00;;;;;;;-3.02;50.47;100372.95;103569;1302;22962;-26
2022/03/13 02:43:13;;;;;;;28.50;11.20;;;;;;;-3.04;50.15;100374.10;103523;1301;24248;-30
2022/03/13 02:45:38;;;;;;;32.20;10.50;;;;;;;-3.05;50.24;100371.17;103571;1301;24211;-30
2022/03/13 02:48:06;;;;;;;29.40;10.80;;;;;;;-3.04;49.90;100367.81;103565;1303;22577;-27
2022/03/13 02:50:32;;;;;;;41.40;14.60;;;;;;;-3.05;49.90;100372.77;103550;1302;24278;-29
2022/03/13 02:52:58;;;;;;;36.20;12.70;;;;;;;-3.05;49.88;100377.32;103506;1302;24482;-26
2022/03/13 02:55:24;;;;;;;29.40;11.50;;;;;;;-3.07;49.94;100376.04;103535;1302;24306;-30
2022/03/13 02:57:49;;;;;;;25.10;9.90;;;;;;;-3.12;50.47;100377.36;103605;1300;24246;-28
2022/03/13 03:00:16;;;;;;;36.00;11.90;;;;;;;-3.16;51.21;100374.46;103517;1301;24306;-27
2022/03/13 03:02:42;;;;;;;25.50;9.70;;;;;;;-3.18;51.52;100375.44;103597;1303;24304;-25
2022/03/13 03:05:08;;;;;;;24.60;9.70;;;;;;;-3.20;51.33;100377.96;103578;1300;24294;-30
2022/03/13 03:07:35;;;;;;;25.00;10.30;;;;;;;-3.19;51.29;100380.41;103519;1301;24202;-26
2022/03/13 03:10:02;;;;;;;22.10;9.80;;;;;;;-3.19;51.32;100377.60;103534;1303;24298;-29
2022/03/13 03:12:29;;;;;;;24.50;10.30;;;;;;;-3.19;51.30;100374.41;103557;1300;24216;-29
2022/03/13 03:14:54;;;;;;;33.00;11.90;;;;;;;-3.19;51.49;100378.98;103574;1300;24212;-25
2022/03/13 03:17:20;;;;;;;38.20;10.80;;;;;;;-3.20;51.71;100376.77;103558;1300;24298;-25
2022/03/13 03:19:50;;;;;;;27.00;10.70;;;;;;;-3.27;52.70;100375.73;103555;1302;24294;-26
2022/03/13 03:22:16;;;;;;;26.80;12.10;;;;;;;-3.34;52.96;100377.88;103535;1300;24277;-27
2022/03/13 03:24:41;;;;;;;38.30;14.10;;;;;;;-3.41;53.51;100374.27;103503;1303;24222;-25
2022/03/13 03:27:07;;;;;;;37.90;15.10;;;;;;;-3.46;54.06;100374.18;103485;1302;24215;-29
2022/03/13 03:29:33;;;;;;;37.90;16.40;;;;;;;-3.50;54.38;100374.72;103527;1302;24411;-25
2022/03/13 03:31:58;;;;;;;40.00;12.70;;;;;;;-3.53;55.15;100371.56;103565;1300;24212;-25
2022/03/13 03:34:26;;;;;;;25.40;11.00;;;;;;;-3.57;55.82;100374.78;103578;1303;24218;-25
2022/03/13 03:36:55;;;;;;;28.90;12.20;;;;;;;-3.62;56.30;100374.69;103526;1301;22505;-26
2022/03/13 03:39:21;;;;;;;25.60;11.80;;;;;;;-3.63;56.29;100371.41;103523;1300;24334;-27
2022/03/13 03:41:48;;;;;;;27.80;11.60;;;;;;;-3.63;56.91;100369.67;103575;1303;24244;-30
2022/03/13 03:44:14;;;;;;;28.60;11.30;;;;;;;-3.63;56.55;100368.62;103619;1300;22515;-26
2022/03/13 03:46:41;;;;;;;30.00;11.70;;;;;;;-3.61;56.50;100370.78;103681;1300;22511;-26
2022/03/13 03:49:07;;;;;;;34.80;12.90;;;;;;;-3.61;56.61;100362.89;103586;1300;24251;-28
2022/03/13 03:51:33;;;;;;;36.90;13.20;;;;;;;-3.59;56.76;100364.02;103462;1300;24395;-25
2022/03/13 03:54:00;;;;;;;38.40;12.20;;;;;;;-3.58;56.61;100364.83;103643;1300;24290;-28
2022/03/13 03:56:26;;;;;;;37.80;14.40;;;;;;;-3.59;56.79;100362.62;103580;1300;24215;-27
2022/03/13 03:58:52;;;;;;;31.50;12.20;;;;;;;-3.60;56.87;100362.86;103644;1300;24199;-26
2022/03/13 04:01:18;;;;;;;27.80;12.10;;;;;;;-3.62;57.03;100359.98;103475;1300;22497;-25
2022/03/13 04:03:44;;;;;;;33.50;11.90;;;;;;;-3.63;57.12;100359.85;103689;1300;24207;-28
2022/03/13 04:06:09;;;;;;;25.40;12.00;;;;;;;-3.63;56.81;100357.93;103572;1297;24402;-25
2022/03/13 04:08:35;;;;;;;31.90;12.00;;;;;;;-3.63;56.54;100359.52;103676;1303;24215;-29
2022/03/13 04:11:01;;;;;;;29.70;12.10;;;;;;;-3.65;56.59;100357.15;103563;1300;24313;-26
2022/03/13 04:13:28;;;;;;;28.80;12.00;;;;;;;-3.64;56.47;100359.92;103237;1301;390257;-28
2022/03/13 04:15:55;;;;;;;34.40;12.40;;;;;;;-3.64;56.13;100362.89;103657;1300;24008;-29
2022/03/13 04:18:22;;;;;;;38.60;13.40;;;;;;;-3.61;55.70;100358.72;103519;1300;22737;-25
2022/03/13 04:20:48;;;;;;;34.60;14.50;;;;;;;-3.58;55.28;100360.46;103578;1301;22496;-30
2022/03/13 04:23:14;;;;;;;33.20;11.70;;;;;;;-3.55;54.82;100362.06;103698;1299;24214;-29
2022/03/13 04:25:40;;;;;;;38.60;13.40;;;;;;;-3.54;54.76;100362.18;103529;1300;24253;-26
2022/03/13 04:28:10;;;;;;;32.90;13.30;;;;;;;-3.55;54.85;100362.77;103703;1300;24310;-28
2022/03/13 04:30:38;;;;;;;35.90;13.40;;;;;;;-3.57;54.97;100361.80;103567;1302;22729;-25
2022/03/13 04:33:05;;;;;;;28.90;13.10;;;;;;;-3.60;55.27;100358.30;103524;1302;22496;-28
2022/03/13 04:35:30;;;;;;;29.40;12.10;;;;;;;-3.63;55.61;100359.48;103658;1300;24446;-26
2022/03/13 04:37:56;;;;;;;32.00;11.70;;;;;;;-3.65;56.12;100360.13;103634;1300;24164;-30
2022/03/13 04:40:22;;;;;;;34.80;13.30;;;;;;;-3.65;56.12;100364.72;103644;1300;24212;-28
2022/03/13 04:42:47;;;;;;;25.90;12.60;;;;;;;-3.67;55.98;100366.92;103654;1300;24470;-28
2022/03/13 04:45:13;;;;;;;28.70;12.70;;;;;;;-3.68;56.30;100371.86;103516;1300;22593;-30
2022/03/13 04:47:39;;;;;;;28.20;12.20;;;;;;;-3.68;56.28;100377.44;103502;1301;24236;-27
2022/03/13 04:50:05;;;;;;;45.90;22.40;;;;;;;-3.68;56.73;100377.80;103550;1300;24212;-29
2022/03/13 04:52:31;;;;;;;38.40;18.40;;;;;;;-3.69;57.31;100385.23;103536;1302;22632;-29
2022/03/13 04:54:56;;;;;;;36.70;13.60;;;;;;;-3.72;57.76;100387.83;103534;1302;24229;-26
2022/03/13 04:57:22;;;;;;;36.20;15.50;;;;;;;-3.73;57.74;100386.86;103598;1302;24285;-26
2022/03/13 04:59:48;;;;;;;40.50;13.00;;;;;;;-3.73;58.15;100386.13;103533;1300;24242;-26
2022/03/13 05:02:13;;;;;;;38.50;13.90;;;;;;;-3.75;58.82;100383.08;103588;1303;24222;-26
2022/03/13 05:04:43;;;;;;;49.40;14.60;;;;;;;-3.76;59.08;100384.86;103507;1300;22514;-26
2022/03/13 05:07:10;;;;;;;40.80;15.70;;;;;;;-3.77;59.50;100383.36;103531;1300;24298;-26
2022/03/13 05:09:35;;;;;;;45.70;14.70;;;;;;;-3.80;60.27;100385.42;103596;1300;24364;-28
2022/03/13 05:12:08;;;;;;;38.20;13.80;;;;;;;-3.80;60.61;100388.06;103568;1300;24249;-25
2022/03/13 05:14:34;;;;;;;36.70;12.00;;;;;;;-3.78;60.71;100391.61;103588;1303;24439;-29
2022/03/13 05:17:01;;;;;;;55.60;14.80;;;;;;;-3.74;61.99;100395.13;103520;1299;24267;-30
2022/03/13 05:19:26;;;;;;;40.40;15.10;;;;;;;-3.74;62.76;100397.73;103516;1300;24368;-30
2022/03/13 05:21:52;;;;;;;39.30;15.50;;;;;;;-3.74;63.03;100395.29;103583;1300;24414;-25
2022/03/13 05:24:18;;;;;;;26.00;12.50;;;;;;;-3.72;63.38;100393.60;103554;1303;24245;-26
2022/03/13 05:26:45;;;;;;;47.90;15.50;;;;;;;-3.68;63.59;100397.25;103561;1301;24246;-29
2022/03/13 05:29:11;;;;;;;34.50;15.30;;;;;;;-3.65;63.83;100396.58;103444;1300;24288;-29
2022/03/13 05:31:38;;;;;;;35.40;13.10;;;;;;;-3.60;64.07;100401.35;103552;1300;24359;-28
2022/03/13 05:34:04;;;;;;;48.10;15.70;;;;;;;-3.58;63.65;100402.27;103562;1302;24308;-26
2022/03/13 05:36:30;;;;;;;45.90;15.60;;;;;;;-3.56;63.53;100402.37;103554;1300;22787;-26
2022/03/13 05:38:56;;;;;;;38.10;13.70;;;;;;;-3.54;62.48;100403.65;103558;1303;24301;-26
2022/03/13 05:41:23;;;;;;;36.50;13.70;;;;;;;-3.50;62.04;100406.23;103530;1302;24428;-27
2022/03/13 05:43:50;;;;;;;40.50;15.50;;;;;;;-3.45;61.59;100405.95;103536;1303;24278;-26
2022/03/13 05:46:16;;;;;;;43.40;14.80;;;;;;;-3.42;61.50;100403.55;103569;1301;24287;-28
2022/03/13 05:48:42;;;;;;;35.20;13.10;;;;;;;-3.38;61.30;100405.94;103432;1301;24247;-29
2022/03/13 05:51:08;;;;;;;42.70;16.20;;;;;;;-3.35;60.86;100404.73;103502;1301;24433;-28
2022/03/13 05:53:33;;;;;;;71.80;23.20;;;;;;;-3.28;60.41;100409.27;103536;1300;24267;-26
2022/03/13 05:55:59;;;;;;;150.60;36.40;;;;;;;-3.20;59.98;100407.95;103546;1302;24297;-27
2022/03/13 05:58:25;;;;;;;159.60;33.20;;;;;;;-3.14;59.76;100409.88;103596;1302;24220;-28
2022/03/13 06:01:03;;;;;;;428.00;71.50;;;;;;;-3.06;59.40;100410.49;103584;1300;24291;-25
2022/03/13 06:03:28;;;;;;;388.00;73.20;;;;;;;-3.01;59.81;100409.50;103583;1300;24330;-29
2022/03/13 06:05:55;;;;;;;315.30;74.00;;;;;;;-2.93;60.10;100414.50;103499;1301;24245;-26
2022/03/13 06:08:21;;;;;;;128.90;35.60;;;;;;;-2.86;60.15;100415.52;103554;1302;24246;-29
2022/03/13 06:10:46;;;;;;;75.70;25.30;;;;;;;-2.75;60.12;100415.59;103481;1300;24298;-26
2022/03/13 06:13:14;;;;;;;64.30;19.80;;;;;;;-2.61;60.14;100418.16;103581;1300;22499;-29
2022/03/13 06:15:40;;;;;;;46.50;18.40;;;;;;;-2.46;59.81;100419.02;103539;1302;22791;-29
2022/03/13 06:18:06;;;;;;;44.10;15.90;;;;;;;-2.30;59.48;100419.33;103549;1300;24281;-26
2022/03/13 06:20:31;;;;;;;55.60;18.60;;;;;;;-2.12;59.32;100425.06;103578;1301;22521;-25
2022/03/13 06:22:59;;;;;;;54.60;17.40;;;;;;;-1.90;59.26;100428.19;103519;1302;24441;-26
2022/03/13 06:25:25;;;;;;;40.80;16.80;;;;;;;-1.71;59.01;100429.86;103582;1300;24257;-27
2022/03/13 06:27:51;;;;;;;41.30;16.60;;;;;;;-1.58;58.60;100434.19;103498;1302;22886;-28
2022/03/13 06:30:21;;;;;;;53.10;17.30;;;;;;;-1.52;58.53;100432.01;103616;1302;24257;-27
2022/03/13 06:32:48;;;;;;;61.50;19.50;;;;;;;-1.44;58.27;100432.42;103569;1300;24193;-29
2022/03/13 06:35:14;;;;;;;48.30;19.90;;;;;;;-1.37;57.97;100431.27;103642;1301;24301;-26
2022/03/13 06:37:41;;;;;;;40.60;16.00;;;;;;;-1.30;57.70;100427.20;103577;1302;24304;-26
2022/03/13 06:40:08;;;;;;;62.60;19.80;;;;;;;-1.22;56.99;100424.02;103596;1303;22832;-28
2022/03/13 06:42:34;;;;;;;43.40;18.40;;;;;;;-1.13;55.10;100427.84;103550;1302;24212;-29
2022/03/13 06:45:00;;;;;;;49.10;19.40;;;;;;;-1.06;54.74;100431.29;103588;1303;24408;-25
2022/03/13 06:47:26;;;;;;;51.00;20.80;;;;;;;-0.98;54.64;100431.62;103546;1303;24326;-28
2022/03/13 06:49:52;;;;;;;40.70;16.70;;;;;;;-0.90;54.78;100431.84;103588;1301;24295;-26
2022/03/13 06:52:18;;;;;;;57.50;22.30;;;;;;;-0.80;54.94;100434.19;103552;1302;22514;-28
2022/03/13 06:54:44;;;;;;;57.40;18.90;;;;;;;-0.69;55.19;100433.46;103482;1300;24297;-25
2022/03/13 06:57:10;;;;;;;49.40;17.60;;;;;;;-0.61;54.68;100431.34;103534;1300;24320;-27
2022/03/13 06:59:35;;;;;;;53.80;20.10;;;;;;;-0.52;54.07;100429.70;103632;1303;24254;-39
2022/03/13 07:02:01;;;;;;;48.70;18.90;;;;;;;-0.39;54.26;100428.55;103583;1302;24238;-29
2022/03/13 07:04:27;;;;;;;53.40;18.80;;;;;;;-0.27;53.89;100428.98;103573;1302;24215;-30
2022/03/13 07:06:53;;;;;;;41.80;18.20;;;;;;;-0.15;53.73;100435.01;103638;1303;24300;-27
2022/03/13 07:09:18;;;;;;;65.80;19.00;;;;;;;-0.04;53.28;100434.12;103690;1300;22845;-25
2022/03/13 07:11:49;;;;;;;48.30;18.10;;;;;;;0.12;52.52;100432.70;103629;1301;22502;-31
2022/03/13 07:14:18;;;;;;;52.00;18.50;;;;;;;0.30;52.33;100433.23;103518;1300;22899;-27
2022/03/13 07:16:43;;;;;;;72.50;22.20;;;;;;;0.55;51.83;100429.84;103602;1300;22799;-29
2022/03/13 07:19:09;;;;;;;31.00;12.90;;;;;;;0.88;49.75;100428.45;103562;1300;22729;-26
2022/03/13 07:21:37;;;;;;;32.60;13.40;;;;;;;1.24;46.34;100429.73;103567;1302;24194;-31
2022/03/13 07:24:03;;;;;;;33.50;15.40;;;;;;;1.63;43.51;100435.33;103515;1303;24664;-25
2022/03/13 07:26:28;;;;;;;53.30;18.50;;;;;;;2.05;43.47;100432.52;103643;1302;24219;-25
2022/03/13 07:28:54;;;;;;;40.60;16.30;;;;;;;2.45;42.43;100432.81;103596;1303;24246;-25
2022/03/13 07:31:20;;;;;;;39.50;16.80;;;;;;;2.75;42.70;100434.55;103546;1302;24275;-26
2022/03/13 07:33:46;;;;;;;56.80;21.20;;;;;;;3.02;42.28;100432.73;103517;1303;24215;-28
2022/03/13 07:36:11;;;;;;;71.20;26.70;;;;;;;3.35;41.90;100433.64;103513;1302;24356;-30
2022/03/13 07:38:37;;;;;;;44.90;18.20;;;;;;;3.69;41.35;100431.36;103582;1303;24245;-25
2022/03/13 07:41:03;;;;;;;35.20;13.90;;;;;;;4.02;40.28;100432.52;103591;1300;24281;-28
2022/03/13 07:43:29;;;;;;;65.20;28.10;;;;;;;4.33;41.34;100429.85;103598;1300;22908;-30
2022/03/13 07:45:55;;;;;;;46.10;21.10;;;;;;;4.59;38.73;100427.62;103512;1303;23977;-28
2022/03/13 07:48:21;;;;;;;42.00;18.10;;;;;;;4.93;38.49;100429.48;103507;1302;24290;-28
2022/03/13 07:50:47;;;;;;;40.20;16.60;;;;;;;5.15;36.96;100429.61;103518;1302;24320;-25
2022/03/13 07:53:12;;;;;;;35.60;14.30;;;;;;;5.50;36.94;100428.08;103653;1303;22626;-30
2022/03/13 07:55:38;;;;;;;44.30;16.40;;;;;;;5.79;36.33;100427.73;103417;1302;24397;-28
2022/03/13 07:58:04;;;;;;;28.50;12.10;;;;;;;5.92;33.87;100428.56;103555;1301;24349;-28
2022/03/13 08:00:29;;;;;;;31.30;11.90;;;;;;;6.20;35.85;100425.25;103567;1301;24215;-28
2022/03/13 08:02:55;;;;;;;28.10;14.30;;;;;;;6.36;34.83;100427.84;103561;1302;24256;-28
2022/03/13 08:05:22;;;;;;;28.10;14.50;;;;;;;6.53;33.48;100430.52;103564;1301;24250;-28
2022/03/13 08:07:49;;;;;;;37.90;15.20;;;;;;;6.70;34.12;100432.48;103622;1300;24224;-25
2022/03/13 08:10:20;;;;;;;24.40;12.50;;;;;;;6.92;32.85;100425.38;103478;1302;24328;-31
2022/03/13 08:12:45;;;;;;;26.60;12.20;;;;;;;7.05;32.88;100427.19;103552;1301;24314;-28
2022/03/13 08:15:11;;;;;;;25.00;12.50;;;;;;;7.34;33.18;100426.95;103594;1301;22689;-25
2022/03/13 08:17:37;;;;;;;30.40;13.60;;;;;;;7.51;32.04;100429.61;103552;1301;24266;-25
2022/03/13 08:20:04;;;;;;;32.10;12.30;;;;;;;7.66;31.48;100435.40;103540;1301;25981;-28
2022/03/13 08:22:30;;;;;;;31.70;12.90;;;;;;;7.84;32.03;100436.44;103614;1300;22670;-30
2022/03/13 08:24:55;;;;;;;26.30;11.60;;;;;;;8.06;32.23;100435.50;103596;1300;24344;-26
2022/03/13 08:27:21;;;;;;;34.60;14.20;;;;;;;8.39;32.17;100430.58;103597;1302;24275;-28
2022/03/13 08:29:47;;;;;;;25.60;12.00;;;;;;;8.71;31.41;100426.36;103627;1300;24284;-28
2022/03/13 08:32:13;;;;;;;30.30;12.50;;;;;;;8.85;30.86;100427.23;103582;1300;24283;-25
2022/03/13 08:34:39;;;;;;;24.70;12.10;;;;;;;8.84;29.66;100424.98;103351;1303;24301;-29
2022/03/13 08:37:06;;;;;;;33.00;12.60;;;;;;;9.03;29.55;100417.52;103559;1300;24256;-28
2022/03/13 08:39:32;;;;;;;31.10;14.70;;;;;;;9.08;28.63;100415.52;103506;1302;24248;-24
2022/03/13 08:41:58;;;;;;;34.20;13.70;;;;;;;9.35;29.92;100415.05;103577;1301;24225;-28
2022/03/13 08:44:24;;;;;;;19.90;12.00;;;;;;;9.46;28.34;100411.72;103587;1300;24242;-28
2022/03/13 08:46:50;;;;;;;33.30;19.40;;;;;;;9.66;28.25;100408.52;103380;1302;24260;-24
2022/03/13 08:49:16;;;;;;;44.70;17.40;;;;;;;9.90;28.31;100408.33;103505;1300;24263;-28
2022/03/13 08:51:42;;;;;;;36.80;15.80;;;;;;;9.94;27.87;100404.36;103624;1300;24339;-25
2022/03/13 08:54:08;;;;;;;42.30;20.40;;;;;;;9.83;26.93;100404.64;103569;1300;23179;-24
2022/03/13 08:56:35;;;;;;;44.70;18.70;;;;;;;9.54;26.42;100404.40;103600;1303;22505;-28
2022/03/13 08:59:02;;;;;;;32.40;10.60;;;;;;;9.37;26.77;100404.77;103578;1301;24349;-30
2022/03/13 09:01:28;;;;;;;23.40;10.50;;;;;;;9.38;26.18;100401.99;103408;1303;24262;-30
2022/03/13 09:03:54;;;;;;;38.80;18.80;;;;;;;9.55;26.97;100398.60;103396;1303;24362;-26
2022/03/13 09:06:21;;;;;;;48.50;21.00;;;;;;;9.73;26.16;100398.52;103493;1300;24348;-28
2022/03/13 09:08:46;;;;;;;44.60;27.70;;;;;;;9.64;26.88;100398.79;103733;1300;22499;-28
2022/03/13 09:11:12;;;;;;;29.30;13.20;;;;;;;9.92;26.25;100399.91;103553;1300;25121;-25
2022/03/13 09:13:38;;;;;;;25.50;13.00;;;;;;;9.72;26.04;100399.56;103519;1300;23980;-28
2022/03/13 09:16:04;;;;;;;27.60;13.70;;;;;;;9.85;26.52;100397.16;103437;1302;24257;-28
2022/03/13 09:18:30;;;;;;;45.50;30.20;;;;;;;10.18;27.20;100394.16;103537;1300;24364;-28
2022/03/13 09:20:58;;;;;;;28.00;17.10;;;;;;;10.33;26.72;100397.88;103579;1300;24298;-25
2022/03/13 09:23:24;;;;;;;81.70;38.70;;;;;;;10.22;26.94;100395.40;103536;1301;23205;-24
2022/03/13 09:25:50;;;;;;;40.20;22.20;;;;;;;10.25;26.82;100396.08;103544;1300;24365;-30
2022/03/13 09:28:16;;;;;;;29.80;15.20;;;;;;;10.12;26.67;100401.48;103562;1300;24210;-30
2022/03/13 09:30:42;;;;;;;33.20;15.10;;;;;;;9.89;26.78;100404.90;103566;1300;22869;-30
2022/03/13 09:33:08;;;;;;;54.40;34.90;;;;;;;9.71;27.01;100404.48;103536;1300;22490;-25
2022/03/13 09:35:34;;;;;;;30.00;17.90;;;;;;;9.58;26.95;100405.98;103531;1300;24242;-28
2022/03/13 09:38:00;;;;;;;31.90;20.20;;;;;;;9.59;27.17;100405.48;103556;1300;24305;-30
2022/03/13 09:40:27;;;;;;;37.70;21.60;;;;;;;9.81;27.03;100407.58;103568;1300;24214;-28
2022/03/13 09:42:53;;;;;;;32.60;17.00;;;;;;;9.78;26.81;100405.91;103585;1300;23200;-28
2022/03/13 09:45:20;;;;;;;29.50;16.00;;;;;;;9.86;26.85;100402.55;103606;1300;24250;-24
2022/03/13 09:47:46;;;;;;;23.20;14.40;;;;;;;10.05;26.63;100402.61;103539;1302;24359;-25
2022/03/13 09:50:12;;;;;;;20.40;12.90;;;;;;;10.13;26.51;100395.60;103552;1300;24218;-24
2022/03/13 09:52:40;;;;;;;19.90;13.30;;;;;;;10.13;26.34;100393.63;103536;1300;22571;-28
2022/03/13 09:55:08;;;;;;;25.50;14.70;;;;;;;10.18;25.67;100391.54;103629;1300;24221;-26
2022/03/13 09:57:36;;;;;;;39.80;22.50;;;;;;;10.31;25.64;100390.26;103590;1300;24234;-29
2022/03/13 10:00:05;;;;;;;27.90;11.70;;;;;;;10.22;25.49;100385.70;103609;1300;24421;-29
2022/03/13 10:02:33;;;;;;;23.10;15.30;;;;;;;10.27;25.57;100382.27;103634;1300;24368;-28
2022/03/13 10:05:04;;;;;;;47.50;32.20;;;;;;;10.56;25.66;100376.02;103626;1300;24211;-25
2022/03/13 10:07:30;;;;;;;51.10;36.30;;;;;;;10.74;24.73;100373.61;103561;1300;22690;-26
2022/03/13 10:09:57;;;;;;;32.90;21.50;;;;;;;10.57;25.09;100377.52;103491;1302;24211;-24
2022/03/13 10:12:23;;;;;;;36.20;21.20;;;;;;;10.50;25.49;100378.16;103570;1302;24215;-24
2022/03/13 10:14:58;;;;;;;32.10;16.80;;;;;;;10.53;25.38;100379.83;103533;1300;24364;-24
2022/03/13 10:17:26;;;;;;;33.70;17.50;;;;;;;10.73;25.09;100381.30;103592;1300;22805;-24
2022/03/13 10:19:52;;;;;;;32.20;19.20;;;;;;;10.86;24.83;100378.00;103526;1302;24214;-28
2022/03/13 10:22:18;;;;;;;30.90;15.80;;;;;;;11.09;24.79;100371.10;103548;1302;24292;-28
2022/03/13 10:24:45;;;;;;;59.30;34.90;;;;;;;11.04;25.17;100372.04;103525;1300;24248;-24
2022/03/13 10:27:13;;;;;;;41.90;29.80;;;;;;;11.30;24.95;100368.16;103651;1300;24265;-30
2022/03/13 10:29:39;;;;;;;27.60;15.30;;;;;;;11.52;24.30;100366.23;103581;1300;22724;-28
2022/03/13 10:32:06;;;;;;;18.40;10.90;;;;;;;11.60;23.91;100367.45;103568;1300;24703;-26
2022/03/13 10:34:33;;;;;;;36.50;26.00;;;;;;;11.60;23.42;100365.63;103571;1300;24270;-28
2022/03/13 10:37:00;;;;;;;17.20;11.30;;;;;;;11.56;23.17;100359.22;103589;1300;24317;-24
2022/03/13 10:39:26;;;;;;;22.40;14.10;;;;;;;11.44;23.82;100357.65;103472;1302;24237;-30
2022/03/13 10:41:56;;;;;;;30.20;12.40;;;;;;;11.60;23.75;100352.76;103586;1300;24447;-25
2022/03/13 10:44:25;;;;;;;15.00;10.90;;;;;;;11.51;23.85;100350.84;103549;1300;24195;-28
2022/03/13 10:46:53;;;;;;;27.30;17.30;;;;;;;11.75;23.48;100348.20;103567;1300;24321;-28
2022/03/13 10:49:26;;;;;;;23.00;14.30;;;;;;;11.84;23.12;100347.53;103568;1300;24195;-24
2022/03/13 10:51:52;;;;;;;17.10;12.10;;;;;;;11.89;23.35;100348.96;103576;1300;22508;-24
2022/03/13 10:54:25;;;;;;;20.60;13.10;;;;;;;11.93;22.74;100346.46;103535;1300;24233;-31
2022/03/13 10:57:06;;;;;;;40.40;21.00;;;;;;;12.03;23.20;100347.50;103541;1300;24136;-23
2022/03/13 10:59:32;;;;;;;71.30;49.60;;;;;;;12.44;22.73;100342.32;103551;1300;24230;-29
2022/03/13 11:02:05;;;;;;;33.10;21.50;;;;;;;12.51;22.00;100339.40;103480;1300;24290;-27